Time;durP1;ratioP1;P1;durP2;ratioP2;P2;SDS_P1;SDS_P2;PMS_P1;PMS_P2;Temp;Humidity;BMP_temperature;BMP_pressure;BME280_temperature;BME280_humidity;BME280_pressure;Samples;Min_cycle;Max_cycle;Signal;HPM_P1;HPM_P2
2023/05/23 00:00:58;;;;;;;41.95;26.80;;;14.20;99.90;;;;;;7370744;19;20038;-65
2023/05/23 00:03:25;;;;;;;33.17;24.45;;;14.20;99.90;;;;;;7373481;19;20045;-59
2023/05/23 00:05:51;;;;;;;36.40;24.25;;;14.30;99.90;;;;;;7371898;19;20023;-65
2023/05/23 00:08:18;;;;;;;36.40;23.27;;;14.20;99.90;;;;;;7371058;19;20022;-65
2023/05/23 00:10:44;;;;;;;29.58;21.35;;;14.20;99.90;;;;;;7374047;19;20021;-58
2023/05/23 00:13:13;;;;;;;27.92;20.10;;;14.30;99.90;;;;;;7373856;19;20335;-66
2023/05/23 00:15:40;;;;;;;23.48;19.05;;;14.30;99.90;;;;;;7373794;19;20027;-58
2023/05/23 00:18:07;;;;;;;22.98;18.08;;;14.30;99.90;;;;;;7373936;19;20029;-59
2023/05/23 00:20:43;;;;;;;24.92;19.05;;;14.30;99.90;;;;;;7373280;19;20023;-60
2023/05/23 00:23:17;;;;;;;25.23;18.60;;;14.30;99.90;;;;;;7371815;19;20014;-59
2023/05/23 00:25:51;;;;;;;27.20;18.52;;;14.30;99.90;;;;;;7366257;19;20023;-66
2023/05/23 00:28:18;;;;;;;25.83;19.05;;;14.30;99.90;;;;;;7371206;19;20046;-66
2023/05/23 00:30:44;;;;;;;24.60;19.70;;;14.30;99.90;;;;;;7377931;19;20498;-65
2023/05/23 00:33:13;;;;;;;22.77;17.60;;;14.30;99.90;;;;;;7377090;19;20019;-66
2023/05/23 00:35:41;;;;;;;20.75;16.05;;;14.30;99.90;;;;;;7378611;19;20014;-59
2023/05/23 00:38:07;;;;;;;19.83;16.92;;;14.20;99.90;;;;;;7378971;19;20018;-58
2023/05/23 00:40:34;;;;;;;21.67;17.70;;;14.20;99.90;;;;;;7377939;19;20023;-66
2023/05/23 00:43:00;;;;;;;22.10;19.58;;;14.20;99.90;;;;;;7378789;19;20026;-66
2023/05/23 00:45:27;;;;;;;24.15;20.40;;;14.30;99.90;;;;;;7377166;19;20023;-65
2023/05/23 00:47:53;;;;;;;25.23;20.50;;;14.20;99.90;;;;;;7377596;19;20657;-66
2023/05/23 00:50:22;;;;;;;26.95;22.52;;;14.20;99.90;;;;;;7376665;19;20015;-58
2023/05/23 00:52:49;;;;;;;31.70;24.67;;;14.10;99.90;;;;;;7378053;19;20024;-57
2023/05/23 00:55:16;;;;;;;31.13;24.60;;;14.20;99.90;;;;;;7375526;19;20018;-65
2023/05/23 00:57:43;;;;;;;31.52;24.85;;;14.00;99.90;;;;;;7379842;19;20022;-58
2023/05/23 01:00:14;;;;;;;30.45;24.02;;;14.00;99.90;;;;;;7378125;19;20047;-66
2023/05/23 01:02:43;;;;;;;30.83;23.42;;;14.00;99.90;;;;;;7379246;19;20470;-67
2023/05/23 01:05:13;;;;;;;30.95;23.48;;;14.00;99.90;;;;;;7375114;19;20015;-58
2023/05/23 01:07:40;;;;;;;31.65;23.77;;;13.90;99.90;;;;;;7378332;19;20043;-66
2023/05/23 01:10:08;;;;;;;28.92;23.35;;;14.00;99.90;;;;;;7376574;19;20010;-58
2023/05/23 01:13:39;;;;;;;27.70;22.45;;;13.90;99.90;;;;;;7377510;19;20034;-66
2023/05/23 01:16:31;;;;;;;30.50;23.77;;;13.90;99.90;;;;;;7374798;19;20032;-58
2023/05/23 01:19:01;;;;;;;;;;;13.90;99.90;;;;;;7375760;19;20088;-58
2023/05/23 01:21:28;;;;;;;24.63;21.98;;;14.00;99.90;;;;;;7378463;19;19932;-58
2023/05/23 01:24:12;;;;;;;25.35;22.60;;;13.90;99.90;;;;;;7378737;19;20034;-58
2023/05/23 01:26:39;;;;;;;30.80;24.98;;;13.90;99.90;;;;;;7375864;19;20019;-58
2023/05/23 01:29:18;;;;;;;27.42;24.35;;;13.80;99.90;;;;;;7380881;19;20023;-65
2023/05/23 01:31:47;;;;;;;26.20;23.38;;;13.90;99.90;;;;;;7376760;19;20025;-58
2023/05/23 01:34:15;;;;;;;28.58;24.70;;;13.80;99.90;;;;;;7375769;19;20014;-66
2023/05/23 01:36:42;;;;;;;30.08;24.52;;;13.90;99.90;;;;;;7375918;19;20854;-58
2023/05/23 01:39:09;;;;;;;28.95;24.80;;;13.90;99.90;;;;;;7375753;19;20604;-58
2023/05/23 01:41:35;;;;;;;29.42;24.55;;;13.90;99.90;;;;;;7372832;19;20022;-58
2023/05/23 01:44:03;;;;;;;28.65;24.95;;;13.80;99.90;;;;;;7374070;19;20058;-66
2023/05/23 01:46:31;;;;;;;25.23;21.92;;;13.80;99.90;;;;;;7371110;19;20737;-66
2023/05/23 01:48:59;;;;;;;26.77;20.98;;;13.80;99.90;;;;;;7375106;19;20021;-66
2023/05/23 01:51:26;;;;;;;28.50;20.67;;;13.70;99.90;;;;;;7373912;19;20086;-66
2023/05/23 01:53:53;;;;;;;24.23;20.88;;;13.80;99.90;;;;;;7378085;19;20014;-58
2023/05/23 01:56:23;;;;;;;24.40;19.02;;;13.80;99.90;;;;;;7371054;19;20432;-66
2023/05/23 01:58:51;;;;;;;25.67;19.73;;;13.80;99.90;;;;;;7375952;19;20018;-58
2023/05/23 02:01:17;;;;;;;21.60;19.35;;;13.80;99.90;;;;;;7373790;19;20022;-67
2023/05/23 02:03:43;;;;;;;24.90;19.15;;;13.80;99.90;;;;;;7376459;19;20019;-67
2023/05/23 02:06:10;;;;;;;24.83;18.15;;;13.70;99.90;;;;;;7373828;19;20018;-66
2023/05/23 02:08:36;;;;;;;25.35;15.70;;;13.80;99.90;;;;;;7376260;19;20774;-67
2023/05/23 02:11:02;;;;;;;30.73;16.52;;;13.70;99.90;;;;;;7372661;19;20550;-58
2023/05/23 02:13:29;;;;;;;27.38;17.02;;;13.60;99.90;;;;;;7376933;19;20043;-59
2023/05/23 02:15:56;;;;;;;30.63;17.95;;;13.60;99.90;;;;;;7376675;19;20018;-58
2023/05/23 02:18:25;;;;;;;30.05;17.58;;;13.60;99.90;;;;;;7375109;19;20022;-66
2023/05/23 02:20:52;;;;;;;25.67;17.02;;;13.50;99.90;;;;;;7373120;19;20486;-57
2023/05/23 02:23:19;;;;;;;32.33;18.00;;;13.40;99.90;;;;;;7373447;19;20518;-57
2023/05/23 02:25:45;;;;;;;33.17;17.55;;;13.30;99.90;;;;;;7373439;19;20043;-58
2023/05/23 02:28:11;;;;;;;30.95;19.00;;;13.30;99.90;;;;;;7377137;19;20018;-57
2023/05/23 02:30:38;;;;;;;28.08;18.25;;;13.40;99.90;;;;;;7372376;19;20021;-57
2023/05/23 02:33:06;;;;;;;28.92;19.00;;;13.30;99.90;;;;;;7370092;19;20014;-58
2023/05/23 02:35:32;;;;;;;28.92;18.30;;;13.30;99.90;;;;;;7375502;19;20019;-66
2023/05/23 02:37:59;;;;;;;29.10;18.27;;;13.30;99.90;;;;;;7375224;19;20018;-66
2023/05/23 02:40:26;;;;;;;34.47;18.77;;;13.20;99.90;;;;;;7372895;19;20769;-58
2023/05/23 02:42:52;;;;;;;33.10;18.20;;;13.20;99.90;;;;;;7370252;19;20018;-66
2023/05/23 02:45:18;;;;;;;31.13;17.13;;;13.10;99.90;;;;;;7373927;19;20014;-65
2023/05/23 02:47:46;;;;;;;27.45;17.00;;;13.10;99.90;;;;;;7373507;19;20018;-57
2023/05/23 02:50:12;;;;;;;32.13;17.95;;;13.10;99.90;;;;;;7371738;19;20022;-58
2023/05/23 02:52:38;;;;;;;28.50;15.90;;;13.10;99.90;;;;;;7366380;19;20018;-58
2023/05/23 02:55:06;;;;;;;24.52;14.98;;;13.10;99.90;;;;;;7372022;19;20029;-57
2023/05/23 02:57:38;;;;;;;24.73;14.50;;;13.10;99.90;;;;;;7376224;19;20022;-66
2023/05/23 03:00:05;;;;;;;24.55;13.77;;;13.00;99.90;;;;;;7372644;19;21481;-65
2023/05/23 03:02:32;;;;;;;26.35;14.18;;;13.00;99.90;;;;;;7370445;19;20094;-58
2023/05/23 03:04:58;;;;;;;27.98;13.90;;;13.00;99.90;;;;;;7375234;19;20366;-66
2023/05/23 03:07:25;;;;;;;22.50;14.05;;;12.90;99.90;;;;;;7373073;19;20382;-58
2023/05/23 03:09:51;;;;;;;26.02;14.60;;;13.00;99.90;;;;;;7372065;19;20474;-66
2023/05/23 03:12:17;;;;;;;30.50;14.75;;;12.90;99.90;;;;;;7370554;19;20014;-57
2023/05/23 03:14:44;;;;;;;30.48;15.60;;;12.90;99.90;;;;;;7371779;19;20026;-65
2023/05/23 03:17:13;;;;;;;29.35;15.10;;;12.90;99.90;;;;;;7371279;19;20022;-65
2023/05/23 03:19:39;;;;;;;33.25;15.77;;;12.80;99.90;;;;;;7372805;19;20019;-58
2023/05/23 03:22:05;;;;;;;31.30;14.32;;;12.80;99.90;;;;;;7370740;19;20485;-65
2023/05/23 03:24:31;;;;;;;29.42;13.80;;;12.70;99.90;;;;;;7370647;19;20022;-66
2023/05/23 03:26:58;;;;;;;28.10;12.98;;;12.70;99.90;;;;;;7369696;19;20042;-66
2023/05/23 03:29:24;;;;;;;21.80;12.00;;;12.70;99.90;;;;;;7370594;19;20041;-66
2023/05/23 03:31:50;;;;;;;28.50;12.43;;;12.70;99.90;;;;;;7369184;19;21196;-67
2023/05/23 03:34:17;;;;;;;27.40;13.43;;;12.70;99.90;;;;;;7373337;19;20018;-58
2023/05/23 03:36:43;;;;;;;27.10;12.52;;;12.70;99.90;;;;;;7373739;19;20026;-58
2023/05/23 03:39:09;;;;;;;28.23;12.25;;;12.70;99.90;;;;;;7372089;19;20021;-67
2023/05/23 03:41:35;;;;;;;30.65;12.45;;;12.60;99.90;;;;;;7371230;19;20019;-67
2023/05/23 03:44:02;;;;;;;33.10;13.48;;;12.60;99.90;;;;;;7371453;19;20023;-67
2023/05/23 03:46:28;;;;;;;27.20;12.27;;;12.60;99.90;;;;;;7370753;19;20027;-58
2023/05/23 03:48:55;;;;;;;25.75;13.02;;;12.60;99.90;;;;;;7372671;19;20086;-66
2023/05/23 03:51:23;;;;;;;23.52;11.77;;;12.60;99.90;;;;;;7371775;19;20038;-66
2023/05/23 03:53:49;;;;;;;29.17;12.90;;;12.60;99.90;;;;;;7367779;19;20075;-58
2023/05/23 03:56:16;;;;;;;24.55;11.98;;;12.60;99.90;;;;;;7371144;19;20086;-67
2023/05/23 03:58:42;;;;;;;23.15;11.90;;;12.50;99.90;;;;;;7371434;19;20021;-67
2023/05/23 04:01:13;;;;;;;24.00;12.00;;;12.60;99.90;;;;;;7370205;19;20030;-67
2023/05/23 04:03:39;;;;;;;27.25;12.95;;;12.50;99.90;;;;;;7370318;19;20022;-67
2023/05/23 04:06:06;;;;;;;21.48;11.18;;;12.50;99.90;;;;;;7375667;19;20510;-67
2023/05/23 04:08:34;;;;;;;26.77;11.05;;;12.50;99.90;;;;;;7375679;19;20018;-68
2023/05/23 04:11:01;;;;;;;23.63;11.23;;;12.60;99.90;;;;;;7381749;19;20022;-67
2023/05/23 04:13:30;;;;;;;22.50;11.50;;;12.60;99.90;;;;;;7378071;19;20010;-66
2023/05/23 04:16:00;;;;;;;28.48;11.52;;;12.50;99.90;;;;;;7375900;19;20015;-66
2023/05/23 04:18:27;;;;;;;21.42;10.18;;;12.50;99.90;;;;;;7375994;19;20494;-66
2023/05/23 04:20:54;;;;;;;28.27;11.43;;;12.50;99.90;;;;;;7377042;19;20050;-67
2023/05/23 04:23:23;;;;;;;18.90;10.32;;;12.50;99.90;;;;;;7378219;19;20029;-66
2023/05/23 04:25:52;;;;;;;29.58;12.45;;;12.50;99.90;;;;;;7375163;19;20046;-66
2023/05/23 04:28:23;;;;;;;23.10;10.88;;;12.50;99.90;;;;;;7377019;19;20034;-66
2023/05/23 04:30:50;;;;;;;21.05;10.05;;;12.50;99.90;;;;;;7378029;19;20047;-67
2023/05/23 04:33:23;;;;;;;20.33;10.23;;;12.50;99.90;;;;;;7374251;19;20022;-66
2023/05/23 04:35:53;;;;;;;19.40;9.60;;;12.50;99.90;;;;;;7378872;19;20023;-67
2023/05/23 04:38:20;;;;;;;19.90;9.40;;;12.50;99.90;;;;;;7375411;19;20019;-66
2023/05/23 04:40:48;;;;;;;19.42;9.30;;;12.50;99.90;;;;;;7374670;19;20761;-67
2023/05/23 04:43:15;;;;;;;18.92;8.45;;;12.40;99.90;;;;;;7374873;19;20019;-67
2023/05/23 04:45:53;;;;;;;24.92;8.07;;;12.40;99.90;;;;;;7376034;19;20026;-67
2023/05/23 04:48:43;;;;;;;17.33;8.25;;;12.40;99.90;;;;;;7376388;19;20015;-67
2023/05/23 04:51:10;;;;;;;17.95;8.63;;;12.40;99.90;;;;;;7377324;19;20048;-67
2023/05/23 04:53:48;;;;;;;23.88;9.20;;;12.40;99.90;;;;;;7376698;19;20018;-58
2023/05/23 04:56:16;;;;;;;19.95;8.55;;;12.40;99.90;;;;;;7377063;19;20504;-58
2023/05/23 04:58:44;;;;;;;20.25;9.02;;;12.30;99.90;;;;;;7378381;19;20014;-58
2023/05/23 05:01:13;;;;;;;21.67;8.70;;;12.30;99.90;;;;;;7377272;19;20014;-59
2023/05/23 05:03:39;;;;;;;21.65;9.38;;;12.40;99.90;;;;;;7376595;19;20018;-58
2023/05/23 05:06:06;;;;;;;22.30;8.18;;;12.30;99.90;;;;;;7375093;19;20788;-59
2023/05/23 05:08:33;;;;;;;17.83;7.85;;;12.30;99.90;;;;;;7379145;19;20048;-58
2023/05/23 05:10:59;;;;;;;19.73;8.88;;;12.30;99.90;;;;;;7379552;19;20019;-66
2023/05/23 05:13:26;;;;;;;18.20;7.38;;;12.30;99.90;;;;;;7371776;19;20501;-67
2023/05/23 05:15:54;;;;;;;18.50;7.63;;;12.20;99.90;;;;;;7374161;19;20021;-66
2023/05/23 05:18:21;;;;;;;16.08;7.22;;;12.30;99.90;;;;;;7371281;19;20112;-68
2023/05/23 05:20:47;;;;;;;20.88;6.95;;;12.30;99.90;;;;;;7375748;19;20022;-68
2023/05/23 05:23:15;;;;;;;18.60;7.18;;;12.20;99.90;;;;;;7373033;19;20018;-68
2023/05/23 05:25:41;;;;;;;18.15;6.95;;;12.20;99.90;;;;;;7377067;19;20010;-68
2023/05/23 05:28:09;;;;;;;14.50;6.93;;;12.20;99.90;;;;;;7375408;19;20028;-68
2023/05/23 05:31:03;;;;;;;23.45;7.90;;;12.20;99.90;;;;;;7375055;19;20026;-68
2023/05/23 05:33:36;;;;;;;25.05;8.13;;;12.20;99.90;;;;;;7373121;19;20022;-58
2023/05/23 05:36:08;;;;;;;23.38;8.40;;;12.20;99.90;;;;;;7374487;19;20019;-59
2023/05/23 05:38:35;;;;;;;21.20;8.68;;;12.20;99.90;;;;;;7370524;19;20019;-58
2023/05/23 05:41:01;;;;;;;29.63;15.90;;;12.10;99.90;;;;;;7372112;19;20507;-58
2023/05/23 05:43:33;;;;;;;22.08;10.25;;;12.00;99.90;;;;;;7372795;19;20029;-58
2023/05/23 05:45:59;;;;;;;22.20;12.90;;;12.00;99.90;;;;;;7373912;19;20018;-58
2023/05/23 05:48:25;;;;;;;22.60;11.43;;;12.00;99.90;;;;;;7377807;19;20498;-58
2023/05/23 05:50:54;;;;;;;26.15;13.10;;;11.90;99.90;;;;;;7377814;19;20364;-58
2023/05/23 05:53:21;;;;;;;23.55;12.20;;;11.90;99.90;;;;;;7378144;19;20577;-69
2023/05/23 05:56:08;;;;;;;24.77;11.95;;;11.90;99.90;;;;;;7376277;19;20123;-59
2023/05/23 05:58:54;;;;;;;35.80;13.13;;;11.90;99.90;;;;;;7375877;19;20019;-59
2023/05/23 06:01:24;;;;;;;22.52;10.80;;;11.80;99.90;;;;;;7375054;19;20019;-66
2023/05/23 06:03:50;;;;;;;23.67;9.73;;;11.70;99.90;;;;;;7372633;19;20018;-68
2023/05/23 06:06:18;;;;;;;19.13;9.35;;;11.80;99.90;;;;;;7374186;19;20031;-69
2023/05/23 06:08:45;;;;;;;19.73;9.00;;;11.80;99.90;;;;;;7373563;19;20022;-68
2023/05/23 06:11:15;;;;;;;20.30;9.48;;;11.70;99.90;;;;;;7375355;19;20371;-68
2023/05/23 06:13:41;;;;;;;17.17;10.07;;;11.70;99.90;;;;;;7372549;19;21295;-68
2023/05/23 06:16:08;;;;;;;18.75;7.57;;;11.70;99.90;;;;;;7373442;19;20025;-69
2023/05/23 06:18:34;;;;;;;17.35;10.15;;;11.70;99.90;;;;;;7375906;19;20032;-68
2023/05/23 06:21:00;;;;;;;17.90;7.95;;;11.70;99.90;;;;;;7370598;19;20042;-68
2023/05/23 06:23:27;;;;;;;20.02;8.05;;;11.70;99.90;;;;;;7374940;19;20025;-65
2023/05/23 06:25:57;;;;;;;16.80;8.10;;;11.80;99.90;;;;;;7370813;19;20030;-68
2023/05/23 06:28:24;;;;;;;19.25;7.43;;;11.80;99.90;;;;;;7373525;19;20041;-68
2023/05/23 06:30:51;;;;;;;17.90;7.80;;;11.80;99.90;;;;;;7372393;19;20026;-68
2023/05/23 06:33:31;;;;;;;18.08;7.75;;;11.80;99.90;;;;;;7375048;19;20021;-68
2023/05/23 06:35:58;;;;;;;21.35;10.13;;;11.70;99.90;;;;;;7373191;19;20015;-68
2023/05/23 06:38:28;;;;;;;17.80;8.85;;;11.80;99.90;;;;;;7372805;19;20015;-69
2023/05/23 06:40:55;;;;;;;16.80;7.57;;;11.80;99.90;;;;;;7373362;19;20014;-68
2023/05/23 06:43:21;;;;;;;19.10;7.75;;;11.70;99.90;;;;;;7369450;19;20014;-59
2023/05/23 06:45:53;;;;;;;14.00;6.65;;;11.80;99.90;;;;;;7368726;19;20015;-69
2023/05/23 06:48:20;;;;;;;14.57;6.85;;;11.80;99.90;;;;;;7374304;19;20049;-69
2023/05/23 06:50:46;;;;;;;16.35;7.45;;;11.90;99.90;;;;;;7373997;19;20667;-69
2023/05/23 06:53:15;;;;;;;14.27;7.53;;;11.90;99.90;;;;;;7373241;19;20493;-68
2023/05/23 06:55:41;;;;;;;15.93;6.43;;;11.80;99.90;;;;;;7371524;19;20032;-68
2023/05/23 06:58:11;;;;;;;18.25;8.00;;;11.90;99.90;;;;;;7373552;19;20328;-68
2023/05/23 07:00:37;;;;;;;13.52;4.57;;;11.90;99.90;;;;;;7375293;19;20579;-68
2023/05/23 07:03:16;;;;;;;18.30;9.45;;;11.90;99.90;;;;;;7375265;19;20033;-59
2023/05/23 07:05:43;;;;;;;26.42;15.27;;;12.00;99.90;;;;;;7370635;19;20902;-68
2023/05/23 07:08:10;;;;;;;11.02;5.47;;;12.10;99.90;;;;;;7373149;19;20014;-69
2023/05/23 07:10:40;;;;;;;41.63;31.45;;;12.10;99.90;;;;;;7374386;19;20025;-67
2023/05/23 07:13:18;;;;;;;18.42;6.60;;;12.30;99.90;;;;;;7371658;19;20018;-68
2023/05/23 07:15:44;;;;;;;15.98;5.43;;;12.40;99.90;;;;;;7373327;19;20006;-59
2023/05/23 07:18:13;;;;;;;13.52;5.30;;;12.50;99.90;;;;;;7374244;19;20017;-59
2023/05/23 07:20:39;;;;;;;16.88;4.78;;;12.50;99.90;;;;;;7376072;19;20621;-59
2023/05/23 07:23:14;;;;;;;16.48;7.82;;;12.50;99.90;;;;;;7372593;19;20502;-58
2023/05/23 07:25:41;;;;;;;17.85;6.07;;;12.50;99.90;;;;;;7372587;19;20022;-58
2023/05/23 07:28:12;;;;;;;17.70;5.20;;;12.70;99.90;;;;;;7372006;19;20041;-69
2023/05/23 07:30:41;;;;;;;18.40;4.57;;;12.70;99.90;;;;;;7371988;19;20358;-68
2023/05/23 07:33:08;;;;;;;17.85;5.43;;;13.10;99.90;;;;;;7368398;19;20482;-69
2023/05/23 07:35:34;;;;;;;15.95;4.55;;;13.20;99.90;;;;;;7373508;19;20051;-69
2023/05/23 07:38:01;;;;;;;18.42;5.57;;;13.80;99.90;;;;;;7368596;19;20039;-67
2023/05/23 07:40:28;;;;;;;18.90;6.63;;;14.10;99.90;;;;;;7372665;19;20030;-68
2023/05/23 07:42:54;;;;;;;19.05;6.43;;;14.10;99.90;;;;;;7377303;19;20007;-68
2023/05/23 07:45:21;;;;;;;20.05;8.05;;;13.80;99.90;;;;;;7369699;19;20025;-68
2023/05/23 07:47:48;;;;;;;15.57;5.70;;;13.80;99.90;;;;;;7370828;19;21017;-67
2023/05/23 07:50:15;;;;;;;17.23;5.65;;;13.40;99.90;;;;;;7371790;19;20038;-67
2023/05/23 07:52:41;;;;;;;20.90;7.97;;;13.30;99.90;;;;;;7372415;19;20014;-68
2023/05/23 07:55:11;;;;;;;18.05;4.13;;;13.20;99.90;;;;;;7371283;19;20019;-58
2023/05/23 07:57:37;;;;;;;17.90;5.25;;;13.20;99.90;;;;;;7372869;19;20066;-59
2023/05/23 08:00:05;;;;;;;18.77;7.05;;;13.20;99.90;;;;;;7368766;19;20014;-59
2023/05/23 08:02:41;;;;;;;16.75;5.30;;;13.20;99.90;;;;;;7374215;19;20019;-59
2023/05/23 08:05:12;;;;;;;17.98;4.93;;;13.30;99.90;;;;;;7366585;19;20482;-67
2023/05/23 08:07:40;;;;;;;21.38;6.68;;;13.20;99.90;;;;;;7374659;19;20026;-66
2023/05/23 08:10:07;;;;;;;21.38;5.07;;;13.30;99.90;;;;;;7371314;19;20011;-68
2023/05/23 08:12:33;;;;;;;16.08;4.88;;;13.30;99.90;;;;;;7373892;19;20055;-67
2023/05/23 08:15:08;;;;;;;16.25;4.53;;;13.30;99.90;;;;;;7367785;19;20015;-58
2023/05/23 08:17:40;;;;;;;18.73;5.78;;;13.30;99.90;;;;;;7372327;19;20081;-59
2023/05/23 08:20:08;;;;;;;12.55;3.97;;;13.20;99.90;;;;;;7367250;19;20465;-59
2023/05/23 08:22:35;;;;;;;20.80;6.28;;;13.20;99.90;;;;;;7372521;19;20015;-58
2023/05/23 08:25:04;;;;;;;19.83;6.00;;;13.30;99.90;;;;;;7370631;19;20022;-59
2023/05/23 08:27:32;;;;;;;23.02;7.18;;;13.40;99.90;;;;;;7366378;19;20035;-58
2023/05/23 08:30:05;;;;;;;17.70;6.10;;;13.60;99.90;;;;;;7374058;19;20119;-59
2023/05/23 08:32:33;;;;;;;19.45;4.80;;;13.60;99.90;;;;;;7370165;19;20644;-59
2023/05/23 08:35:00;;;;;;;21.75;6.93;;;13.80;99.90;;;;;;7373479;19;20014;-59
2023/05/23 08:37:26;;;;;;;16.48;5.50;;;14.10;99.90;;;;;;7366034;19;20023;-59
2023/05/23 08:39:54;;;;;;;14.70;4.13;;;14.10;99.90;;;;;;7370530;19;20131;-59
2023/05/23 08:42:40;;;;;;;16.75;4.47;;;14.20;99.90;;;;;;7369745;19;20653;-59
2023/05/23 08:45:09;;;;;;;20.15;5.30;;;14.30;99.90;;;;;;7370770;19;20021;-68
2023/05/23 08:47:42;;;;;;;13.02;3.53;;;14.60;99.90;;;;;;7368694;19;20022;-61
2023/05/23 08:50:12;;;;;;;29.08;14.50;;;14.80;99.90;;;;;;7376655;19;20022;-59
2023/05/23 08:52:44;;;;;;;23.02;5.25;;;15.40;99.90;;;;;;7376979;19;20055;-59
2023/05/23 08:55:11;;;;;;;16.90;4.60;;;15.80;99.90;;;;;;7378797;19;20026;-59
2023/05/23 08:57:42;;;;;;;27.00;13.93;;;16.40;99.90;;;;;;7376440;19;20026;-59
2023/05/23 09:00:25;;;;;;;14.93;5.70;;;16.20;99.90;;;;;;7378468;19;20006;-59
2023/05/23 09:02:53;;;;;;;28.85;16.70;;;16.50;99.90;;;;;;7375467;19;20022;-60
2023/05/23 09:05:41;;;;;;;14.35;4.13;;;16.80;99.90;;;;;;7375940;19;20018;-59
2023/05/23 09:08:08;;;;;;;21.00;4.63;;;16.90;99.90;;;;;;7375946;19;20040;-59
2023/05/23 09:10:34;;;;;;;12.93;4.85;;;16.60;99.90;;;;;;7377965;19;20014;-59
2023/05/23 09:13:03;;;;;;;14.15;3.47;;;16.60;99.90;;;;;;7379192;19;20022;-59
2023/05/23 09:15:30;;;;;;;18.77;4.45;;;16.40;99.90;;;;;;7378311;19;20031;-58
2023/05/23 09:18:00;;;;;;;20.45;7.35;;;16.10;99.90;;;;;;7375913;19;20654;-59
2023/05/23 09:20:28;;;;;;;21.98;7.72;;;15.80;99.90;;;;;;7374202;19;20026;-59
2023/05/23 09:22:58;;;;;;;18.30;9.18;;;15.60;99.90;;;;;;7375120;19;20025;-67
2023/05/23 09:25:25;;;;;;;17.30;7.72;;;15.90;99.90;;;;;;7376658;19;20015;-67
2023/05/23 09:27:53;;;;;;;13.57;4.53;;;16.90;99.90;;;;;;7373146;19;20068;-67
2023/05/23 09:30:19;;;;;;;16.33;6.45;;;17.10;99.90;;;;;;7375375;19;20091;-67
2023/05/23 09:32:58;;;;;;;17.17;7.55;;;17.30;99.90;;;;;;7376249;19;20639;-67
2023/05/23 09:35:27;;;;;;;19.70;5.50;;;17.10;99.90;;;;;;7370596;19;20618;-67
2023/05/23 09:37:57;;;;;;;14.30;4.32;;;16.80;99.90;;;;;;7374283;19;20014;-68
2023/05/23 09:40:30;;;;;;;13.55;5.78;;;16.60;99.90;;;;;;7374861;19;20044;-68
2023/05/23 09:43:04;;;;;;;16.38;3.97;;;16.50;99.90;;;;;;7377876;19;20011;-67
2023/05/23 09:45:31;;;;;;;18.33;7.93;;;16.70;99.90;;;;;;7374026;19;20022;-68
2023/05/23 09:48:00;;;;;;;19.55;9.68;;;17.20;99.90;;;;;;7376919;19;20739;-68
2023/05/23 09:50:32;;;;;;;15.90;4.43;;;17.50;99.90;;;;;;7375098;19;20363;-60
2023/05/23 09:53:00;;;;;;;18.30;5.05;;;17.20;99.90;;;;;;7374013;19;20042;-60
2023/05/23 09:55:26;;;;;;;15.68;4.10;;;16.70;99.90;;;;;;7373001;19;20526;-69
2023/05/23 09:57:57;;;;;;;13.68;6.13;;;16.60;99.90;;;;;;7373333;19;20772;-68
2023/05/23 10:00:24;;;;;;;15.18;4.90;;;16.60;99.90;;;;;;7376184;19;20486;-67
2023/05/23 10:03:00;;;;;;;15.73;3.90;;;16.20;99.90;;;;;;7377693;19;20026;-66
2023/05/23 10:05:35;;;;;;;18.27;4.95;;;16.00;99.90;;;;;;7373715;19;20015;-59
2023/05/23 10:08:07;;;;;;;17.80;4.07;;;16.60;99.90;;;;;;7370594;19;20022;-59
2023/05/23 10:10:41;;;;;;;13.32;4.20;;;17.10;99.90;;;;;;7374492;19;20019;-59
2023/05/23 10:13:07;;;;;;;13.95;3.58;;;17.10;99.90;;;;;;7369693;19;20018;-67
2023/05/23 10:15:38;;;;;;;13.45;4.53;;;16.80;99.90;;;;;;7375086;19;20018;-67
2023/05/23 10:18:21;;;;;;;20.40;6.97;;;17.30;99.90;;;;;;7372356;19;20023;-67
2023/05/23 10:20:51;;;;;;;20.30;8.32;;;17.30;99.90;;;;;;7375767;19;20018;-68
2023/05/23 10:23:18;;;;;;;15.90;5.25;;;17.00;99.90;;;;;;7373465;19;20014;-58
2023/05/23 10:25:47;;;;;;;19.27;7.28;;;17.60;99.90;;;;;;7372803;19;20461;-58
2023/05/23 10:28:14;;;;;;;16.00;4.88;;;18.30;99.90;;;;;;7371608;19;20734;-59
2023/05/23 10:30:41;;;;;;;16.70;7.18;;;18.80;94.70;;;;;;7378213;19;20682;-67
2023/05/23 10:33:10;;;;;;;11.82;5.72;;;19.20;79.70;;;;;;7377266;19;20046;-58
2023/05/23 10:35:48;;;;;;;10.38;3.83;;;19.00;88.90;;;;;;7376985;19;20058;-59
2023/05/23 10:38:23;;;;;;;14.23;4.20;;;19.40;69.60;;;;;;7374641;19;20526;-59
2023/05/23 10:41:23;;;;;;;16.95;4.55;;;18.30;74.20;;;;;;7375532;19;20022;-59
2023/05/23 10:44:08;;;;;;;13.48;4.70;;;18.10;81.50;;;;;;7374558;19;20022;-67
2023/05/23 10:46:53;;;;;;;15.73;4.32;;;18.10;82.10;;;;;;7369564;19;20426;-67
2023/05/23 10:49:40;;;;;;;11.57;3.90;;;18.40;74.10;;;;;;7373656;19;20526;-67
2023/05/23 10:52:07;;;;;;;13.85;4.78;;;18.40;73.40;;;;;;7373826;19;20496;-59
2023/05/23 10:54:53;;;;;;;11.65;3.70;;;18.30;79.00;;;;;;7371998;19;20010;-59
2023/05/23 10:57:24;;;;;;;10.82;4.05;;;18.80;72.00;;;;;;7370384;19;20496;-58
2023/05/23 10:59:51;;;;;;;15.75;4.03;;;18.40;73.10;;;;;;7372580;19;20515;-67
2023/05/23 11:02:27;;;;;;;13.27;4.35;;;18.00;80.90;;;;;;7374301;19;20052;-59
2023/05/23 11:05:21;;;;;;;11.45;3.03;;;17.50;86.60;;;;;;7376042;19;20018;-59
2023/05/23 11:08:07;;;;;;;11.10;4.03;;;17.70;82.60;;;;;;7377175;19;20051;-59
2023/05/23 11:10:53;;;;;;;11.35;3.30;;;17.80;85.70;;;;;;7374563;19;21966;-68
2023/05/23 11:13:23;;;;;;;15.30;3.47;;;18.00;77.80;;;;;;7376015;19;20022;-67
2023/05/23 11:15:50;;;;;;;12.25;3.33;;;17.70;78.60;;;;;;7376900;19;20022;-67
2023/05/23 11:18:37;;;;;;;13.98;3.38;;;17.50;76.20;;;;;;7373566;19;20010;-67
2023/05/23 11:21:05;;;;;;;10.90;4.47;;;17.40;79.90;;;;;;7377015;19;20015;-67
2023/05/23 11:23:42;;;;;;;11.68;3.05;;;18.40;73.70;;;;;;7372313;19;20411;-59
2023/05/23 11:26:28;;;;;;;12.23;3.33;;;19.10;70.40;;;;;;7374199;19;20112;-59
2023/05/23 11:28:56;;;;;;;10.82;3.00;;;18.70;65.80;;;;;;7375300;19;20858;-67
2023/05/23 11:31:23;;;;;;;11.23;3.28;;;18.50;67.90;;;;;;7372660;19;20021;-59
2023/05/23 11:33:52;;;;;;;9.88;3.50;;;18.50;69.60;;;;;;7370896;19;20006;-67
2023/05/23 11:36:22;;;;;;;14.75;3.42;;;18.30;70.10;;;;;;7376398;19;20021;-67
2023/05/23 11:38:52;;;;;;;12.45;3.95;;;18.70;70.70;;;;;;7369017;19;20027;-67
2023/05/23 11:41:18;;;;;;;11.20;3.47;;;18.80;65.60;;;;;;7371836;19;20828;-59
2023/05/23 11:43:51;;;;;;;10.48;3.30;;;18.60;64.50;;;;;;7374024;19;20393;-67
2023/05/23 11:46:17;;;;;;;11.70;3.78;;;18.90;65.60;;;;;;7370297;19;20022;-67
2023/05/23 11:48:47;;;;;;;15.10;3.60;;;19.10;66.30;;;;;;7369095;19;20051;-67
2023/05/23 11:51:14;;;;;;;11.65;3.10;;;18.90;62.80;;;;;;7373724;19;20022;-67
2023/05/23 11:53:41;;;;;;;13.18;3.80;;;18.30;65.10;;;;;;7371753;19;20090;-62
2023/05/23 11:56:07;;;;;;;12.80;3.83;;;17.70;67.00;;;;;;7375209;19;20580;-59
2023/05/23 11:58:35;;;;;;;13.48;4.15;;;17.40;70.90;;;;;;7373275;19;20024;-59
2023/05/23 12:01:07;;;;;;;10.90;4.03;;;17.40;75.40;;;;;;7371450;19;20022;-59
2023/05/23 12:03:43;;;;;;;18.20;3.47;;;17.30;81.20;;;;;;7373676;19;20085;-59
2023/05/23 12:06:09;;;;;;;15.68;3.72;;;17.40;90.30;;;;;;7373050;19;20021;-58
2023/05/23 12:08:36;;;;;;;12.63;3.10;;;17.50;87.60;;;;;;7370815;19;20014;-67
2023/05/23 12:11:03;;;;;;;13.80;3.70;;;17.30;83.10;;;;;;7373103;19;20104;-59
2023/05/23 12:13:29;;;;;;;9.93;2.85;;;17.50;76.50;;;;;;7370977;19;20019;-59
2023/05/23 12:16:00;;;;;;;15.50;3.40;;;17.50;73.10;;;;;;7373204;19;20470;-60
2023/05/23 12:18:31;;;;;;;12.45;3.90;;;17.30;71.50;;;;;;7372060;19;20014;-68
2023/05/23 12:21:06;;;;;;;12.30;3.08;;;17.90;68.30;;;;;;7372588;19;20015;-67
2023/05/23 12:23:34;;;;;;;14.18;3.72;;;18.10;68.10;;;;;;7369375;19;20044;-59
2023/05/23 12:26:04;;;;;;;13.02;3.85;;;18.00;66.00;;;;;;7376095;19;20049;-59
2023/05/23 12:28:38;;;;;;;18.65;3.28;;;17.80;70.30;;;;;;7380004;19;20018;-59
2023/05/23 12:31:18;;;;;;;12.50;4.22;;;17.60;73.20;;;;;;7383525;19;20516;-59
2023/05/23 12:33:46;;;;;;;13.77;3.22;;;17.60;79.00;;;;;;7376772;19;20014;-69
2023/05/23 12:36:23;;;;;;;18.48;9.10;;;18.10;73.80;;;;;;7379247;19;20017;-70
2023/05/23 12:38:50;;;;;;;13.32;3.42;;;19.00;69.90;;;;;;7375706;19;20027;-69
2023/05/23 12:41:20;;;;;;;12.45;3.65;;;18.90;66.40;;;;;;7375777;19;20038;-71
2023/05/23 12:43:55;;;;;;;10.50;3.78;;;18.70;65.80;;;;;;7373984;19;20277;-70
2023/05/23 12:46:23;;;;;;;11.77;3.55;;;18.20;63.40;;;;;;7379426;19;20027;-67